createdAt,value
2019-05-29T00:00:12.944Z,10.70
2019-05-29T00:02:39.700Z,10.70
2019-05-29T00:05:06.593Z,10.70
2019-05-29T00:07:33.174Z,10.70
2019-05-29T00:10:00.630Z,10.70
2019-05-29T00:12:27.117Z,10.70
2019-05-29T00:14:53.526Z,10.60
2019-05-29T00:17:19.769Z,10.60
2019-05-29T00:19:46.415Z,10.60
2019-05-29T00:22:12.934Z,10.60
2019-05-29T00:24:39.477Z,10.60
2019-05-29T00:27:07.198Z,10.60
2019-05-29T00:29:33.650Z,10.60
2019-05-29T00:32:00.031Z,10.60
2019-05-29T00:34:26.501Z,10.50
2019-05-29T00:36:52.974Z,10.50
2019-05-29T00:39:19.407Z,10.50
2019-05-29T00:41:45.908Z,10.40
2019-05-29T00:44:13.264Z,10.40
2019-05-29T00:46:39.581Z,10.40
2019-05-29T00:49:06.225Z,10.40
2019-05-29T00:51:32.748Z,10.30
2019-05-29T00:53:59.409Z,10.30
2019-05-29T00:56:25.853Z,10.30
2019-05-29T00:58:52.419Z,10.30
2019-05-29T01:01:20.143Z,10.30
2019-05-29T01:03:46.722Z,10.20
2019-05-29T01:06:13.949Z,10.20
2019-05-29T01:08:40.396Z,10.20
2019-05-29T01:11:08.316Z,10.20
2019-05-29T01:13:35.429Z,10.10
2019-05-29T01:16:01.805Z,10.10
2019-05-29T01:18:28.280Z,10.10
2019-05-29T01:20:54.741Z,10.10
2019-05-29T01:23:22.376Z,10.00
2019-05-29T01:25:48.836Z,10.00
2019-05-29T01:28:15.317Z,10.00
2019-05-29T01:30:41.722Z,9.90
2019-05-29T01:33:08.295Z,9.90
2019-05-29T01:35:35.094Z,9.90
2019-05-29T01:38:01.488Z,9.90
2019-05-29T01:40:29.603Z,9.90
2019-05-29T01:42:56.152Z,9.80
2019-05-29T01:45:23.495Z,9.80
2019-05-29T01:47:50.040Z,9.70
2019-05-29T01:50:17.668Z,9.70
2019-05-29T01:52:44.314Z,9.70
2019-05-29T01:55:10.914Z,9.70
2019-05-29T01:57:37.158Z,9.70
2019-05-29T02:00:08.524Z,9.60
2019-05-29T02:02:34.903Z,9.60
2019-05-29T02:05:01.753Z,9.50
2019-05-29T02:07:28.340Z,9.50
2019-05-29T02:09:54.980Z,9.50
2019-05-29T02:12:22.331Z,9.50
2019-05-29T02:14:48.866Z,9.40
2019-05-29T02:17:15.581Z,9.40
2019-05-29T02:19:42.159Z,9.40
2019-05-29T02:22:08.880Z,9.40
2019-05-29T02:24:35.358Z,9.30
2019-05-29T02:27:01.974Z,9.30
2019-05-29T02:29:28.524Z,9.30
2019-05-29T02:31:54.962Z,9.20
2019-05-29T02:34:22.629Z,9.20
2019-05-29T02:36:49.649Z,9.20
2019-05-29T02:39:16.042Z,9.20
2019-05-29T02:41:42.500Z,9.20
2019-05-29T02:44:09.087Z,9.20
2019-05-29T02:46:35.707Z,9.10
2019-05-29T02:49:02.099Z,9.10
2019-05-29T02:51:30.333Z,9.10
2019-05-29T02:53:56.941Z,9.00
2019-05-29T02:56:24.720Z,9.00
2019-05-29T02:58:51.533Z,9.00
2019-05-29T03:01:18.028Z,8.90
2019-05-29T03:03:44.313Z,8.90
2019-05-29T03:06:11.493Z,8.90
2019-05-29T03:08:38.284Z,8.90
2019-05-29T03:11:04.898Z,8.90
2019-05-29T03:13:31.720Z,8.90
2019-05-29T03:16:10.722Z,8.80
2019-05-29T03:18:28.062Z,8.80
2019-05-29T03:20:54.604Z,8.70
2019-05-29T03:23:21.178Z,8.80
2019-05-29T03:25:47.633Z,8.80
2019-05-29T03:28:14.105Z,8.80
2019-05-29T03:30:45.992Z,8.80
2019-05-29T03:33:08.885Z,8.80
2019-05-29T03:35:43.370Z,8.80
2019-05-29T03:38:03.652Z,8.70
2019-05-29T03:40:31.612Z,8.80
2019-05-29T03:42:58.407Z,8.80
2019-05-29T03:45:26.637Z,8.80
2019-05-29T03:47:53.119Z,8.90
2019-05-29T03:50:19.500Z,8.80
2019-05-29T03:52:46.067Z,8.80
2019-05-29T03:55:12.726Z,8.90
2019-05-29T03:57:39.375Z,8.90
2019-05-29T04:00:06.741Z,8.90
2019-05-29T04:02:33.712Z,9.00
2019-05-29T04:05:01.608Z,9.00
2019-05-29T04:07:29.314Z,9.10
2019-05-29T04:09:55.771Z,9.20
2019-05-29T04:12:22.234Z,9.20
2019-05-29T04:14:48.681Z,9.30
2019-05-29T04:17:17.688Z,9.20
2019-05-29T04:19:44.546Z,9.20
2019-05-29T04:22:11.371Z,9.30
2019-05-29T04:24:40.070Z,9.30
2019-05-29T04:27:10.179Z,9.50
2019-05-29T04:29:38.234Z,9.60
2019-05-29T04:32:04.811Z,9.60
2019-05-29T04:34:31.718Z,9.60
2019-05-29T04:36:59.550Z,9.60
2019-05-29T04:39:26.026Z,9.70
2019-05-29T04:41:52.611Z,9.90
2019-05-29T04:44:19.377Z,10.10
2019-05-29T04:46:45.854Z,10.20
2019-05-29T04:49:12.257Z,10.10
2019-05-29T04:51:39.862Z,10.10
2019-05-29T04:54:06.517Z,10.10
2019-05-29T04:56:32.950Z,10.10
2019-05-29T04:58:59.520Z,10.20
2019-05-29T05:01:25.992Z,10.20
2019-05-29T05:03:52.504Z,10.30
2019-05-29T05:06:19.118Z,10.40
2019-05-29T05:08:45.726Z,10.40
2019-05-29T05:11:12.163Z,10.40
2019-05-29T05:13:39.729Z,10.40
2019-05-29T05:16:06.346Z,10.40
2019-05-29T05:18:33.738Z,10.60
2019-05-29T05:21:00.138Z,10.70
2019-05-29T05:23:26.635Z,10.70
2019-05-29T05:25:53.124Z,10.70
2019-05-29T05:28:19.640Z,10.70
2019-05-29T05:30:46.120Z,10.70
2019-05-29T05:33:12.687Z,10.70
2019-05-29T05:35:39.224Z,10.70
2019-05-29T05:38:05.810Z,10.70
2019-05-29T05:40:32.714Z,10.70
2019-05-29T05:43:00.742Z,10.90
2019-05-29T05:45:27.219Z,10.90
2019-05-29T05:47:57.730Z,10.80
2019-05-29T05:50:22.013Z,10.90
2019-05-29T05:52:48.582Z,11.00
2019-05-29T05:55:15.793Z,11.10
2019-05-29T05:57:42.377Z,11.20
2019-05-29T06:00:09.738Z,11.20
2019-05-29T06:02:36.206Z,11.30
2019-05-29T06:05:04.133Z,11.30
2019-05-29T06:07:31.913Z,11.30
2019-05-29T06:09:58.313Z,11.30
2019-05-29T06:12:24.826Z,11.40
2019-05-29T06:14:51.243Z,11.50
2019-05-29T06:17:17.744Z,11.60
2019-05-29T06:19:44.190Z,11.70
2019-05-29T06:22:10.812Z,11.60
2019-05-29T06:24:37.270Z,11.70
2019-05-29T06:27:03.765Z,11.70
2019-05-29T06:29:30.321Z,11.70
2019-05-29T06:31:56.922Z,11.90
2019-05-29T06:34:23.487Z,11.90
2019-05-29T06:36:50.085Z,12.00
2019-05-29T06:39:16.501Z,12.00
2019-05-29T06:41:44.363Z,12.00
2019-05-29T06:44:10.911Z,12.10
2019-05-29T06:46:38.362Z,12.30
2019-05-29T06:49:05.029Z,12.50
2019-05-29T06:51:31.618Z,12.60
2019-05-29T06:53:58.107Z,13.30
2019-05-29T06:56:24.568Z,14.20
2019-05-29T06:58:51.125Z,14.80
2019-05-29T07:01:17.634Z,15.40
2019-05-29T07:03:44.383Z,14.90
2019-05-29T07:06:10.920Z,14.50
2019-05-29T07:08:40.181Z,14.30
2019-05-29T07:11:05.656Z,14.90
2019-05-29T07:13:34.983Z,15.80
2019-05-29T07:16:00.512Z,15.80
2019-05-29T07:18:27.117Z,15.30
2019-05-29T07:20:53.663Z,15.40
2019-05-29T07:23:20.281Z,15.20
2019-05-29T07:25:47.416Z,14.80
2019-05-29T07:28:14.217Z,15.60
2019-05-29T07:30:44.007Z,15.50
2019-05-29T07:33:09.133Z,15.50
2019-05-29T07:35:35.753Z,15.80
2019-05-29T07:38:02.228Z,16.30
2019-05-29T07:40:28.745Z,16.60
2019-05-29T07:42:56.890Z,16.40
2019-05-29T07:45:23.628Z,16.60
2019-05-29T07:47:50.279Z,16.80
2019-05-29T07:50:17.107Z,17.70
2019-05-29T07:52:45.399Z,18.00
2019-05-29T07:55:12.699Z,17.10
2019-05-29T07:57:40.721Z,16.90
2019-05-29T08:00:08.273Z,17.50
2019-05-29T08:02:34.784Z,17.90
2019-05-29T08:05:01.473Z,18.00
2019-05-29T08:07:27.981Z,17.90
2019-05-29T08:09:54.579Z,18.00
2019-05-29T08:12:20.865Z,17.10
2019-05-29T08:14:47.918Z,17.30
2019-05-29T08:17:14.403Z,18.20
2019-05-29T08:19:56.933Z,18.70
2019-05-29T08:22:09.280Z,18.70
2019-05-29T08:24:35.649Z,17.60
2019-05-29T08:27:02.176Z,17.80
2019-05-29T08:29:28.775Z,18.30
2019-05-29T08:31:55.278Z,18.40
2019-05-29T08:34:21.875Z,18.50
2019-05-29T08:37:01.167Z,18.80
2019-05-29T08:39:33.582Z,19.00
2019-05-29T08:41:56.132Z,19.00
2019-05-29T08:44:13.545Z,19.00
2019-05-29T08:46:39.845Z,19.00
2019-05-29T08:49:06.337Z,18.90
2019-05-29T08:51:32.955Z,18.70
2019-05-29T08:53:59.506Z,18.90
2019-05-29T08:56:26.005Z,19.10
2019-05-29T08:58:52.541Z,19.50
2019-05-29T09:01:19.086Z,20.20
2019-05-29T09:03:46.772Z,20.40
2019-05-29T09:06:13.799Z,20.40
2019-05-29T09:08:40.167Z,19.80
2019-05-29T09:11:06.718Z,19.90
2019-05-29T09:13:33.224Z,20.40
2019-05-29T09:15:59.672Z,20.20
2019-05-29T09:18:26.186Z,20.70
2019-05-29T09:21:02.963Z,20.60
2019-05-29T09:23:21.017Z,20.20
2019-05-29T09:25:47.421Z,20.30
2019-05-29T09:28:18.342Z,20.20
2019-05-29T09:30:44.608Z,20.30
2019-05-29T09:33:11.461Z,20.60
2019-05-29T09:35:37.920Z,20.30
2019-05-29T09:38:04.528Z,20.00
2019-05-29T09:40:30.994Z,20.20
2019-05-29T09:42:57.657Z,20.20
2019-05-29T09:45:25.482Z,20.30
2019-05-29T09:47:52.233Z,20.70
2019-05-29T09:50:20.846Z,21.00
2019-05-29T09:52:47.496Z,20.70
2019-05-29T09:55:14.095Z,20.70
2019-05-29T09:57:40.581Z,20.70
2019-05-29T10:00:09.330Z,20.90
2019-05-29T10:02:35.893Z,20.80
2019-05-29T10:05:05.093Z,20.60
2019-05-29T10:07:31.682Z,20.70
2019-05-29T10:09:59.330Z,19.60
2019-05-29T10:12:26.579Z,19.10
2019-05-29T10:14:53.652Z,19.20
2019-05-29T10:17:21.603Z,19.30
2019-05-29T10:19:48.152Z,19.80
2019-05-29T10:22:14.754Z,20.20
2019-05-29T10:24:41.209Z,20.90
2019-05-29T10:27:07.811Z,20.90
2019-05-29T10:29:34.508Z,20.80
2019-05-29T10:32:01.109Z,21.00
2019-05-29T10:34:27.628Z,20.70
2019-05-29T10:36:54.826Z,20.50
2019-05-29T10:39:21.452Z,20.20
2019-05-29T10:41:48.853Z,20.20
2019-05-29T10:44:15.241Z,20.90
2019-05-29T10:46:41.738Z,21.20
2019-05-29T10:49:08.247Z,20.80
2019-05-29T10:51:34.902Z,20.80
2019-05-29T10:54:01.479Z,21.00
2019-05-29T10:56:27.989Z,21.00
2019-05-29T10:58:59.494Z,21.00
2019-05-29T11:01:22.790Z,20.80
2019-05-29T11:03:49.392Z,20.60
2019-05-29T11:06:15.808Z,20.50
2019-05-29T11:08:42.649Z,20.50
2019-05-29T11:11:09.124Z,20.30
2019-05-29T11:13:35.657Z,20.20
2019-05-29T11:16:02.134Z,19.70
2019-05-29T11:18:28.713Z,18.90
2019-05-29T11:20:57.628Z,19.30
2019-05-29T11:23:24.112Z,19.80
2019-05-29T11:25:51.966Z,19.90
2019-05-29T11:28:18.609Z,20.10
2019-05-29T11:30:45.256Z,20.30
2019-05-29T11:33:11.936Z,20.50
2019-05-29T11:35:38.457Z,20.90
2019-05-29T11:38:06.847Z,21.00
2019-05-29T11:40:33.646Z,21.10
2019-05-29T11:43:00.395Z,21.20
2019-05-29T11:45:26.985Z,21.10
2019-05-29T11:47:54.874Z,20.80
2019-05-29T11:50:22.005Z,20.30
2019-05-29T11:52:48.609Z,19.80
2019-05-29T11:55:16.729Z,19.60
2019-05-29T11:57:43.283Z,19.40
2019-05-29T12:00:19.613Z,19.50
2019-05-29T12:02:40.652Z,19.90
2019-05-29T12:05:08.683Z,19.90
2019-05-29T12:07:35.185Z,19.70
2019-05-29T12:10:05.143Z,19.40
2019-05-29T12:12:31.793Z,19.40
2019-05-29T12:15:07.941Z,19.30
2019-05-29T12:17:26.648Z,19.60
2019-05-29T12:19:54.183Z,19.70
2019-05-29T12:22:20.709Z,20.20
2019-05-29T12:24:47.266Z,20.50
2019-05-29T12:27:13.825Z,20.50
2019-05-29T12:29:40.397Z,20.30
2019-05-29T12:32:09.600Z,20.70
2019-05-29T12:34:35.144Z,21.00
2019-05-29T12:37:01.932Z,21.10
2019-05-29T12:39:28.333Z,21.30
2019-05-29T12:41:55.411Z,20.80
2019-05-29T12:44:22.030Z,20.70
2019-05-29T12:46:49.533Z,20.90
2019-05-29T12:49:16.847Z,20.60
2019-05-29T12:51:43.616Z,19.80
2019-05-29T12:54:10.210Z,19.20
2019-05-29T12:56:36.695Z,18.60
2019-05-29T12:59:04.657Z,18.30
2019-05-29T13:01:31.274Z,18.90
2019-05-29T13:03:58.759Z,19.40
2019-05-29T13:06:25.293Z,19.60
2019-05-29T13:08:52.153Z,19.70
2019-05-29T13:11:19.723Z,19.10
2019-05-29T13:13:46.278Z,19.10
2019-05-29T13:16:12.802Z,18.90
2019-05-29T13:18:39.358Z,19.30
2019-05-29T13:21:06.019Z,19.30
2019-05-29T13:23:44.682Z,19.50
2019-05-29T13:26:01.471Z,19.00
2019-05-29T13:28:28.163Z,18.90
2019-05-29T13:30:55.675Z,18.90
2019-05-29T13:33:22.386Z,18.60
2019-05-29T13:35:50.993Z,18.70
2019-05-29T13:38:17.610Z,19.10
2019-05-29T13:40:44.256Z,19.20
2019-05-29T13:43:15.171Z,19.50
2019-05-29T13:45:39.326Z,19.40
2019-05-29T13:48:07.351Z,19.90
2019-05-29T13:50:34.226Z,19.90
2019-05-29T13:53:01.276Z,19.70
2019-05-29T13:55:27.965Z,19.80
2019-05-29T13:57:54.689Z,19.90
2019-05-29T14:00:36.622Z,19.60
2019-05-29T14:02:49.828Z,19.00
2019-05-29T14:05:16.744Z,19.00
2019-05-29T14:07:43.535Z,19.20
2019-05-29T14:10:10.212Z,19.00
2019-05-29T14:12:36.866Z,19.40
2019-05-29T14:15:09.708Z,19.50
2019-05-29T14:17:36.088Z,19.40
2019-05-29T14:20:04.718Z,19.10
2019-05-29T14:22:31.116Z,18.90
2019-05-29T14:24:57.605Z,18.70
2019-05-29T14:27:23.966Z,18.70
2019-05-29T14:29:50.624Z,18.90
2019-05-29T14:32:17.200Z,19.10
2019-05-29T14:34:43.681Z,19.20
2019-05-29T14:37:10.134Z,19.30
2019-05-29T14:39:36.607Z,19.70
2019-05-29T14:42:04.313Z,19.90
2019-05-29T14:44:30.969Z,19.80
2019-05-29T14:46:57.497Z,20.00
2019-05-29T14:49:26.839Z,19.80
2019-05-29T14:51:52.201Z,19.90
2019-05-29T14:54:18.797Z,19.60
2019-05-29T14:56:45.678Z,19.20
2019-05-29T14:59:14.012Z,19.20
2019-05-29T15:01:40.482Z,19.20
2019-05-29T15:04:07.613Z,19.00
2019-05-29T15:06:34.259Z,18.60
2019-05-29T15:09:00.707Z,18.70
2019-05-29T15:11:29.330Z,18.50
2019-05-29T15:13:55.865Z,18.40
2019-05-29T15:16:22.450Z,18.40
2019-05-29T15:18:48.928Z,18.40
2019-05-29T15:21:15.457Z,18.70
2019-05-29T15:23:41.943Z,18.50
2019-05-29T15:26:09.571Z,18.50
2019-05-29T15:28:36.248Z,18.10
2019-05-29T15:31:02.741Z,18.30
2019-05-29T15:33:29.085Z,18.20
2019-05-29T15:35:55.514Z,17.90
2019-05-29T15:38:22.074Z,17.90
2019-05-29T15:40:48.442Z,17.70
2019-05-29T15:43:15.328Z,17.40
2019-05-29T15:45:41.933Z,17.70
2019-05-29T15:48:08.953Z,17.80
2019-05-29T15:50:35.416Z,17.80
2019-05-29T15:53:01.939Z,17.50
2019-05-29T15:55:34.325Z,17.30
2019-05-29T15:57:56.649Z,17.30
2019-05-29T16:00:23.267Z,17.40
2019-05-29T16:02:50.009Z,17.60
2019-05-29T16:05:17.277Z,17.70
2019-05-29T16:07:43.677Z,17.70
2019-05-29T16:10:14.265Z,17.70
2019-05-29T16:12:42.255Z,17.80
2019-05-29T16:15:11.035Z,17.70
2019-05-29T16:17:37.539Z,17.80
2019-05-29T16:20:07.623Z,17.60
2019-05-29T16:22:34.121Z,17.30
2019-05-29T16:25:00.666Z,17.30
2019-05-29T16:27:30.820Z,17.40
2019-05-29T16:29:55.329Z,17.30
2019-05-29T16:32:22.065Z,17.20
2019-05-29T16:34:48.602Z,17.10
2019-05-29T16:37:15.235Z,17.30
2019-05-29T16:39:41.772Z,17.30
2019-05-29T16:42:08.432Z,17.20
2019-05-29T16:44:35.134Z,17.00
2019-05-29T16:47:01.510Z,17.00
2019-05-29T16:49:27.807Z,16.90
2019-05-29T16:51:54.313Z,16.80
2019-05-29T16:54:21.078Z,16.70
2019-05-29T16:56:47.830Z,16.70
2019-05-29T16:59:14.902Z,16.60
2019-05-29T17:01:41.222Z,16.60
2019-05-29T17:04:07.503Z,16.60
2019-05-29T17:06:33.790Z,16.40
2019-05-29T17:09:00.393Z,16.10
2019-05-29T17:11:26.960Z,15.80
2019-05-29T17:13:53.501Z,15.70
2019-05-29T17:16:20.662Z,15.50
2019-05-29T17:18:48.022Z,15.40
2019-05-29T17:21:14.605Z,15.30
2019-05-29T17:23:41.158Z,15.30
2019-05-29T17:26:11.043Z,15.20
2019-05-29T17:28:35.946Z,15.20
2019-05-29T17:31:02.655Z,15.20
2019-05-29T17:33:29.137Z,15.20
2019-05-29T17:35:55.428Z,15.10
2019-05-29T17:38:23.169Z,15.10
2019-05-29T17:40:49.790Z,15.10
2019-05-29T17:43:21.472Z,15.00
2019-05-29T17:45:44.866Z,15.00
2019-05-29T17:48:11.589Z,15.10
2019-05-29T17:50:40.189Z,15.10
2019-05-29T17:53:06.557Z,15.10
2019-05-29T17:55:33.035Z,15.00
2019-05-29T17:57:59.682Z,15.00
2019-05-29T18:00:26.668Z,15.00
2019-05-29T18:02:53.230Z,14.90
2019-05-29T18:05:20.452Z,14.80
2019-05-29T18:07:47.020Z,14.70
2019-05-29T18:10:13.967Z,14.70
2019-05-29T18:12:40.666Z,14.60
2019-05-29T18:15:07.954Z,14.60
2019-05-29T18:17:34.422Z,14.60
2019-05-29T18:20:00.970Z,14.50
2019-05-29T18:22:27.805Z,14.50
2019-05-29T18:24:54.462Z,14.50
2019-05-29T18:27:21.873Z,14.50
2019-05-29T18:29:48.292Z,14.40
2019-05-29T18:32:14.817Z,14.40
2019-05-29T18:34:41.342Z,14.40
2019-05-29T18:37:07.879Z,14.40
2019-05-29T18:39:35.359Z,14.40
2019-05-29T18:42:01.713Z,14.30
2019-05-29T18:44:28.958Z,14.20
2019-05-29T18:46:55.546Z,14.20
2019-05-29T18:49:22.276Z,14.20
2019-05-29T18:51:48.722Z,14.00
2019-05-29T18:54:15.099Z,14.00
2019-05-29T18:56:43.778Z,14.00
2019-05-29T18:59:10.197Z,13.90
2019-05-29T19:01:36.816Z,13.90
2019-05-29T19:04:03.398Z,13.90
2019-05-29T19:06:29.956Z,13.80
2019-05-29T19:08:56.459Z,13.70
2019-05-29T19:11:23.863Z,13.70
2019-05-29T19:13:50.490Z,13.70
2019-05-29T19:16:17.371Z,13.70
2019-05-29T19:18:43.874Z,13.60
2019-05-29T19:21:10.365Z,13.60
2019-05-29T19:23:36.690Z,13.60
2019-05-29T19:26:03.258Z,13.50
2019-05-29T19:28:30.676Z,13.40
2019-05-29T19:30:57.201Z,13.40
2019-05-29T19:33:23.833Z,13.30
2019-05-29T19:35:50.300Z,13.30
2019-05-29T19:38:16.807Z,13.30
2019-05-29T19:40:43.416Z,13.30
2019-05-29T19:43:09.920Z,13.20
2019-05-29T19:45:36.467Z,13.20
2019-05-29T19:48:03.121Z,13.10
2019-05-29T19:50:32.951Z,13.10
2019-05-29T19:52:59.411Z,13.10
2019-05-29T19:55:29.235Z,13.10
2019-05-29T19:57:56.483Z,13.00
2019-05-29T20:00:22.356Z,13.00
2019-05-29T20:02:48.885Z,12.90
2019-05-29T20:05:15.646Z,12.90
2019-05-29T20:07:42.069Z,12.90
2019-05-29T20:10:08.758Z,12.80
2019-05-29T20:12:35.691Z,12.80
2019-05-29T20:15:04.474Z,12.70
2019-05-29T20:17:32.054Z,12.70
2019-05-29T20:19:58.482Z,12.60
2019-05-29T20:22:24.993Z,12.60
2019-05-29T20:24:51.430Z,12.60
2019-05-29T20:27:18.033Z,12.50
2019-05-29T20:29:44.604Z,12.40
2019-05-29T20:32:11.096Z,12.40
2019-05-29T20:34:38.884Z,12.40
2019-05-29T20:37:05.458Z,12.40
2019-05-29T20:39:32.989Z,12.40
2019-05-29T20:41:59.831Z,12.30
2019-05-29T20:44:26.244Z,12.30
2019-05-29T20:46:52.595Z,12.30
2019-05-29T20:49:19.267Z,12.20
2019-05-29T20:51:45.833Z,12.20
2019-05-29T20:54:12.298Z,12.10
2019-05-29T20:56:39.808Z,12.10
2019-05-29T20:59:06.585Z,12.10
2019-05-29T21:01:39.187Z,12.00
2019-05-29T21:04:01.226Z,12.00
2019-05-29T21:06:27.726Z,12.00
2019-05-29T21:08:54.277Z,11.90
2019-05-29T21:11:20.808Z,11.90
2019-05-29T21:13:47.473Z,11.80
2019-05-29T21:16:14.293Z,11.80
2019-05-29T21:18:42.097Z,11.80
2019-05-29T21:21:08.821Z,11.70
2019-05-29T21:23:36.260Z,11.70
2019-05-29T21:26:02.929Z,11.70
2019-05-29T21:28:40.006Z,11.70
2019-05-29T21:30:57.708Z,11.60
2019-05-29T21:33:24.319Z,11.60
2019-05-29T21:35:50.784Z,11.60
2019-05-29T21:38:17.421Z,11.60
2019-05-29T21:40:46.742Z,11.60
2019-05-29T21:43:13.298Z,11.50
2019-05-29T21:45:41.038Z,11.50
2019-05-29T21:48:07.589Z,11.40
2019-05-29T21:50:34.127Z,11.40
2019-05-29T21:53:00.599Z,11.30
2019-05-29T21:55:27.089Z,11.30
2019-05-29T21:57:53.541Z,11.30
2019-05-29T22:00:32.834Z,11.20
2019-05-29T22:02:59.291Z,11.20
2019-05-29T22:05:27.394Z,11.20
2019-05-29T22:07:53.974Z,11.10
2019-05-29T22:10:20.525Z,11.10
2019-05-29T22:12:47.184Z,11.10
2019-05-29T22:15:13.850Z,11.00
2019-05-29T22:17:40.376Z,11.00
2019-05-29T22:20:06.925Z,11.00
2019-05-29T22:22:33.506Z,10.90
2019-05-29T22:25:00.188Z,10.90
2019-05-29T22:27:27.768Z,10.90
2019-05-29T22:29:55.233Z,10.80
2019-05-29T22:32:21.816Z,10.80
2019-05-29T22:34:48.399Z,10.80
2019-05-29T22:37:17.262Z,10.70
2019-05-29T22:39:43.773Z,10.70
2019-05-29T22:42:10.126Z,10.60
2019-05-29T22:44:36.612Z,10.60
2019-05-29T22:47:03.172Z,10.60
2019-05-29T22:49:29.750Z,10.60
2019-05-29T22:51:56.245Z,10.60
2019-05-29T22:54:22.789Z,10.60
2019-05-29T22:56:49.317Z,10.60
2019-05-29T22:59:31.098Z,10.50
2019-05-29T23:01:44.234Z,10.50
2019-05-29T23:04:10.694Z,10.50
2019-05-29T23:06:37.168Z,10.40
2019-05-29T23:09:05.475Z,10.40
2019-05-29T23:11:32.007Z,10.40
2019-05-29T23:13:58.475Z,10.40
2019-05-29T23:16:24.832Z,10.40
2019-05-29T23:18:52.436Z,10.40
2019-05-29T23:21:18.984Z,10.40
2019-05-29T23:23:45.597Z,10.40
2019-05-29T23:26:12.074Z,10.30
2019-05-29T23:28:38.696Z,10.30
2019-05-29T23:31:05.137Z,10.30
2019-05-29T23:33:31.640Z,10.40
2019-05-29T23:35:59.004Z,10.30
2019-05-29T23:38:25.745Z,10.30
2019-05-29T23:40:53.212Z,10.30
2019-05-29T23:43:19.653Z,10.30
2019-05-29T23:45:46.313Z,10.30
2019-05-29T23:48:12.924Z,10.20
2019-05-29T23:50:39.434Z,10.10
2019-05-29T23:53:05.717Z,10.10
2019-05-29T23:55:32.285Z,10.10
2019-05-29T23:57:59.835Z,10.00
